SEY weather

Sélibaby Airport
Sélibaby, Guidimaka Region, Mauritania

Public forecast

Using degrees Celsius for public forecast. Weather courtesy of forecast.io.

Closest aviation weather report (METAR) to Sélibaby Airport

Report is more than 6 hours old.

Closest report is Bakel Airport, 25.0 nm (46.4 km) SW. Retrieved 2010/12/13 09:00 UTC (10 years ago):

GOTB 130900Z 28004KT 9999 BKN130 21/15 Q1010

Closest aviation forecast (TAF) to Sélibaby Airport

Closest forecast is Saint Louis Airport, 251.6 nm (465.9 km) WNW. Retrieved 2020/08/07 18:51 UTC (4 hours ago):

TAF GOSS 071730Z 0718/0818 32010KT 9999 SCT013